3NC2 weather

Garner Road Heliport
Raleigh, North Carolina, United States

Public forecast

Using degrees Fahrenheit for public forecast. Weather courtesy of forecast.io.

Closest aviation weather report (METAR) to Garner Road Heliport

Closest report is Raleigh Durham International Airport, 11.7 nm (21.6 km) NW. Retrieved 2020/01/20 22:51 UTC (18 minutes ago):

KRDU 202251Z 03006KT 10SM CLR 02/M12 A3034 RMK AO2 SLP277 T00171117

Closest aviation forecast (TAF) to Garner Road Heliport

Closest forecast is Raleigh Durham International Airport, 11.7 nm (21.6 km) NW. Retrieved 2020/01/20 18:22 UTC (5 hours ago):

TAF KRDU 201720Z 2018/2118 36009G15KT P6SM SKC FM202100 02008KT P6SM SKC FM210600 04005KT P6SM FEW200